sensor_id;sensor_type;location;lat;lon;timestamp;temperature;humidity
54202;DHT22;40108;53.152;5.844;2022-11-11T00:00:35;11.70;92.80
54202;DHT22;40108;53.152;5.844;2022-11-11T00:03:01;11.70;92.90
54202;DHT22;40108;53.152;5.844;2022-11-11T00:05:27;11.70;92.90
54202;DHT22;40108;53.152;5.844;2022-11-11T00:07:56;11.70;92.90
54202;DHT22;40108;53.152;5.844;2022-11-11T00:10:25;11.70;92.90
54202;DHT22;40108;53.152;5.844;2022-11-11T00:12:51;11.70;93.00
54202;DHT22;40108;53.152;5.844;2022-11-11T00:15:17;11.70;93.00
54202;DHT22;40108;53.152;5.844;2022-11-11T00:17:43;11.70;93.00
54202;DHT22;40108;53.152;5.844;2022-11-11T00:20:27;11.70;93.10
54202;DHT22;40108;53.152;5.844;2022-11-11T00:23:24;11.70;93.10
54202;DHT22;40108;53.152;5.844;2022-11-11T00:26:09;11.70;93.20
54202;DHT22;40108;53.152;5.844;2022-11-11T00:28:35;11.70;93.30
54202;DHT22;40108;53.152;5.844;2022-11-11T00:31:08;11.60;93.30
54202;DHT22;40108;53.152;5.844;2022-11-11T00:33:35;11.70;93.40
54202;DHT22;40108;53.152;5.844;2022-11-11T00:36:00;11.60;93.50
54202;DHT22;40108;53.152;5.844;2022-11-11T00:38:26;11.60;93.60
54202;DHT22;40108;53.152;5.844;2022-11-11T00:41:17;11.60;93.60
54202;DHT22;40108;53.152;5.844;2022-11-11T00:43:44;11.60;93.70
54202;DHT22;40108;53.152;5.844;2022-11-11T00:46:11;11.60;93.70
54202;DHT22;40108;53.152;5.844;2022-11-11T00:48:56;11.60;93.70
54202;DHT22;40108;53.152;5.844;2022-11-11T00:51:40;11.60;93.70
54202;DHT22;40108;53.152;5.844;2022-11-11T00:54:06;11.50;93.70
54202;DHT22;40108;53.152;5.844;2022-11-11T00:56:32;11.60;93.70
54202;DHT22;40108;53.152;5.844;2022-11-11T00:59:04;11.60;93.80
54202;DHT22;40108;53.152;5.844;2022-11-11T01:01:29;11.50;93.80
54202;DHT22;40108;53.152;5.844;2022-11-11T01:03:56;11.50;93.80
54202;DHT22;40108;53.152;5.844;2022-11-11T01:06:22;11.60;93.90
54202;DHT22;40108;53.152;5.844;2022-11-11T01:08:47;11.50;93.90
54202;DHT22;40108;53.152;5.844;2022-11-11T01:11:16;11.50;94.00
54202;DHT22;40108;53.152;5.844;2022-11-11T01:13:42;11.50;94.00
54202;DHT22;40108;53.152;5.844;2022-11-11T01:16:16;11.50;94.10
54202;DHT22;40108;53.152;5.844;2022-11-11T01:18:42;11.50;94.10
54202;DHT22;40108;53.152;5.844;2022-11-11T01:21:11;11.50;94.10
54202;DHT22;40108;53.152;5.844;2022-11-11T01:23:39;11.50;94.20
54202;DHT22;40108;53.152;5.844;2022-11-11T01:26:09;11.60;94.20
54202;DHT22;40108;53.152;5.844;2022-11-11T01:28:36;11.60;94.20
54202;DHT22;40108;53.152;5.844;2022-11-11T01:31:07;11.60;94.20
54202;DHT22;40108;53.152;5.844;2022-11-11T01:33:34;11.60;94.20
54202;DHT22;40108;53.152;5.844;2022-11-11T01:36:09;11.60;94.20
54202;DHT22;40108;53.152;5.844;2022-11-11T01:38:35;11.60;94.20
54202;DHT22;40108;53.152;5.844;2022-11-11T01:41:02;11.60;94.20
54202;DHT22;40108;53.152;5.844;2022-11-11T01:43:48;11.60;94.20
54202;DHT22;40108;53.152;5.844;2022-11-11T01:46:32;11.50;94.30
54202;DHT22;40108;53.152;5.844;2022-11-11T01:49:20;11.60;94.30
54202;DHT22;40108;53.152;5.844;2022-11-11T01:54:40;11.60;94.30
54202;DHT22;40108;53.152;5.844;2022-11-11T01:57:12;11.60;94.40
54202;DHT22;40108;53.152;5.844;2022-11-11T01:59:42;11.60;94.40
54202;DHT22;40108;53.152;5.844;2022-11-11T02:02:18;11.60;94.40
54202;DHT22;40108;53.152;5.844;2022-11-11T02:04:47;11.60;94.40
54202;DHT22;40108;53.152;5.844;2022-11-11T02:07:33;11.60;94.40
54202;DHT22;40108;53.152;5.844;2022-11-11T02:09:59;11.50;94.40
54202;DHT22;40108;53.152;5.844;2022-11-11T02:12:26;11.60;94.40
54202;DHT22;40108;53.152;5.844;2022-11-11T02:15:10;11.60;94.40
54202;DHT22;40108;53.152;5.844;2022-11-11T02:17:38;11.60;94.40
54202;DHT22;40108;53.152;5.844;2022-11-11T02:20:05;11.60;94.40
54202;DHT22;40108;53.152;5.844;2022-11-11T02:22:42;11.50;94.40
54202;DHT22;40108;53.152;5.844;2022-11-11T02:25:12;11.50;94.40
54202;DHT22;40108;53.152;5.844;2022-11-11T02:27:42;11.40;94.30
54202;DHT22;40108;53.152;5.844;2022-11-11T02:30:09;11.40;94.40
54202;DHT22;40108;53.152;5.844;2022-11-11T02:32:46;11.40;94.40
54202;DHT22;40108;53.152;5.844;2022-11-11T02:35:30;11.40;94.40
54202;DHT22;40108;53.152;5.844;2022-11-11T02:37:56;11.30;94.50
54202;DHT22;40108;53.152;5.844;2022-11-11T02:40:29;11.30;94.60
54202;DHT22;40108;53.152;5.844;2022-11-11T02:42:57;11.20;94.70
54202;DHT22;40108;53.152;5.844;2022-11-11T02:45:23;11.20;94.70
54202;DHT22;40108;53.152;5.844;2022-11-11T02:47:48;11.20;94.70
54202;DHT22;40108;53.152;5.844;2022-11-11T02:50:14;11.20;94.80
54202;DHT22;40108;53.152;5.844;2022-11-11T02:52:40;11.20;94.80
54202;DHT22;40108;53.152;5.844;2022-11-11T02:55:06;11.20;94.80
54202;DHT22;40108;53.152;5.844;2022-11-11T02:57:33;11.30;94.80
54202;DHT22;40108;53.152;5.844;2022-11-11T02:59:59;11.30;94.80
54202;DHT22;40108;53.152;5.844;2022-11-11T03:02:26;11.20;94.80
54202;DHT22;40108;53.152;5.844;2022-11-11T03:04:56;11.20;94.80
54202;DHT22;40108;53.152;5.844;2022-11-11T03:07:24;11.20;94.80
54202;DHT22;40108;53.152;5.844;2022-11-11T03:09:50;11.30;94.80
54202;DHT22;40108;53.152;5.844;2022-11-11T03:12:16;11.20;94.80
54202;DHT22;40108;53.152;5.844;2022-11-11T03:14:42;11.20;94.90
54202;DHT22;40108;53.152;5.844;2022-11-11T03:17:08;11.30;94.90
54202;DHT22;40108;53.152;5.844;2022-11-11T03:19:52;11.30;94.90
54202;DHT22;40108;53.152;5.844;2022-11-11T03:22:38;11.30;94.90
54202;DHT22;40108;53.152;5.844;2022-11-11T03:25:04;11.30;94.90
54202;DHT22;40108;53.152;5.844;2022-11-11T03:27:48;11.30;94.90
54202;DHT22;40108;53.152;5.844;2022-11-11T03:30:13;11.30;94.90
54202;DHT22;40108;53.152;5.844;2022-11-11T03:32:39;11.30;94.90
54202;DHT22;40108;53.152;5.844;2022-11-11T03:35:05;11.20;94.90
54202;DHT22;40108;53.152;5.844;2022-11-11T03:37:31;11.30;94.90
54202;DHT22;40108;53.152;5.844;2022-11-11T03:40:15;11.20;94.90
54202;DHT22;40108;53.152;5.844;2022-11-11T03:42:41;11.20;94.90
54202;DHT22;40108;53.152;5.844;2022-11-11T03:45:08;11.20;94.90
54202;DHT22;40108;53.152;5.844;2022-11-11T03:47:34;11.20;94.90
54202;DHT22;40108;53.152;5.844;2022-11-11T03:49:59;11.20;94.90
54202;DHT22;40108;53.152;5.844;2022-11-11T03:52:34;11.20;94.90
54202;DHT22;40108;53.152;5.844;2022-11-11T03:55:00;11.20;95.00
54202;DHT22;40108;53.152;5.844;2022-11-11T03:57:26;11.20;95.00
54202;DHT22;40108;53.152;5.844;2022-11-11T03:59:58;11.20;95.00
54202;DHT22;40108;53.152;5.844;2022-11-11T04:02:23;11.20;95.00
54202;DHT22;40108;53.152;5.844;2022-11-11T04:05:08;11.10;95.10
54202;DHT22;40108;53.152;5.844;2022-11-11T04:07:52;11.10;95.20
54202;DHT22;40108;53.152;5.844;2022-11-11T04:10:36;11.10;95.30
54202;DHT22;40108;53.152;5.844;2022-11-11T04:13:04;11.10;95.30
54202;DHT22;40108;53.152;5.844;2022-11-11T04:15:48;11.00;95.30
54202;DHT22;40108;53.152;5.844;2022-11-11T04:18:33;11.00;95.40
54202;DHT22;40108;53.152;5.844;2022-11-11T04:21:18;11.00;95.40
54202;DHT22;40108;53.152;5.844;2022-11-11T04:24:03;11.00;95.50
54202;DHT22;40108;53.152;5.844;2022-11-11T04:26:49;11.00;95.50
54202;DHT22;40108;53.152;5.844;2022-11-11T04:29:15;11.00;95.50
54202;DHT22;40108;53.152;5.844;2022-11-11T04:31:56;11.00;95.50
54202;DHT22;40108;53.152;5.844;2022-11-11T04:35:03;10.90;95.40
54202;DHT22;40108;53.152;5.844;2022-11-11T04:37:31;11.00;95.50
54202;DHT22;40108;53.152;5.844;2022-11-11T04:39:57;11.00;95.50
54202;DHT22;40108;53.152;5.844;2022-11-11T04:42:41;10.90;95.40
54202;DHT22;40108;53.152;5.844;2022-11-11T04:45:10;11.00;95.50
54202;DHT22;40108;53.152;5.844;2022-11-11T04:47:57;10.90;95.40
54202;DHT22;40108;53.152;5.844;2022-11-11T04:50:26;11.00;95.50
54202;DHT22;40108;53.152;5.844;2022-11-11T04:52:52;10.90;95.50
54202;DHT22;40108;53.152;5.844;2022-11-11T04:55:18;10.90;95.50
54202;DHT22;40108;53.152;5.844;2022-11-11T04:58:02;10.80;95.40
54202;DHT22;40108;53.152;5.844;2022-11-11T05:00:28;10.80;95.50
54202;DHT22;40108;53.152;5.844;2022-11-11T05:02:56;10.80;95.50
54202;DHT22;40108;53.152;5.844;2022-11-11T05:05:51;10.80;95.60
54202;DHT22;40108;53.152;5.844;2022-11-11T05:08:44;10.70;95.60
54202;DHT22;40108;53.152;5.844;2022-11-11T05:11:33;10.80;95.70
54202;DHT22;40108;53.152;5.844;2022-11-11T05:14:01;10.80;95.70
54202;DHT22;40108;53.152;5.844;2022-11-11T05:16:48;10.70;95.70
54202;DHT22;40108;53.152;5.844;2022-11-11T05:19:33;10.70;95.80
54202;DHT22;40108;53.152;5.844;2022-11-11T05:22:31;10.70;95.80
54202;DHT22;40108;53.152;5.844;2022-11-11T05:24:57;10.70;95.80
54202;DHT22;40108;53.152;5.844;2022-11-11T05:27:42;10.70;95.70
54202;DHT22;40108;53.152;5.844;2022-11-11T05:30:09;10.70;95.80
54202;DHT22;40108;53.152;5.844;2022-11-11T05:32:35;10.70;95.80
54202;DHT22;40108;53.152;5.844;2022-11-11T05:35:01;10.70;95.80
54202;DHT22;40108;53.152;5.844;2022-11-11T05:37:27;10.70;95.80
54202;DHT22;40108;53.152;5.844;2022-11-11T05:39:53;10.70;95.80
54202;DHT22;40108;53.152;5.844;2022-11-11T05:42:19;10.60;95.70
54202;DHT22;40108;53.152;5.844;2022-11-11T05:44:45;10.60;95.70
54202;DHT22;40108;53.152;5.844;2022-11-11T05:47:10;10.60;95.80
54202;DHT22;40108;53.152;5.844;2022-11-11T05:49:36;10.60;95.90
54202;DHT22;40108;53.152;5.844;2022-11-11T05:52:03;10.60;96.00
54202;DHT22;40108;53.152;5.844;2022-11-11T05:54:29;10.60;96.00
54202;DHT22;40108;53.152;5.844;2022-11-11T05:56:55;10.60;96.10
54202;DHT22;40108;53.152;5.844;2022-11-11T05:59:20;10.60;96.20
54202;DHT22;40108;53.152;5.844;2022-11-11T06:01:46;10.70;96.20
54202;DHT22;40108;53.152;5.844;2022-11-11T06:04:12;10.70;96.10
54202;DHT22;40108;53.152;5.844;2022-11-11T06:06:37;10.70;96.10
54202;DHT22;40108;53.152;5.844;2022-11-11T06:09:04;10.70;96.00
54202;DHT22;40108;53.152;5.844;2022-11-11T06:11:30;10.80;96.00
54202;DHT22;40108;53.152;5.844;2022-11-11T06:13:56;10.80;96.00
54202;DHT22;40108;53.152;5.844;2022-11-11T06:16:23;10.80;95.90
54202;DHT22;40108;53.152;5.844;2022-11-11T06:18:49;10.80;95.90
54202;DHT22;40108;53.152;5.844;2022-11-11T06:21:15;10.80;95.80
54202;DHT22;40108;53.152;5.844;2022-11-11T06:23:41;10.90;95.80
54202;DHT22;40108;53.152;5.844;2022-11-11T06:26:08;10.90;95.80
54202;DHT22;40108;53.152;5.844;2022-11-11T06:31:08;10.90;95.70
54202;DHT22;40108;53.152;5.844;2022-11-11T06:33:35;11.00;95.70
54202;DHT22;40108;53.152;5.844;2022-11-11T06:36:02;11.00;95.60
54202;DHT22;40108;53.152;5.844;2022-11-11T06:38:28;11.00;95.50
54202;DHT22;40108;53.152;5.844;2022-11-11T06:40:54;11.00;95.50
54202;DHT22;40108;53.152;5.844;2022-11-11T06:43:20;11.00;95.50
54202;DHT22;40108;53.152;5.844;2022-11-11T06:45:49;11.00;95.40
54202;DHT22;40108;53.152;5.844;2022-11-11T06:48:15;10.90;95.50
54202;DHT22;40108;53.152;5.844;2022-11-11T06:50:41;10.90;95.40
54202;DHT22;40108;53.152;5.844;2022-11-11T06:53:12;10.90;95.40
54202;DHT22;40108;53.152;5.844;2022-11-11T06:55:38;11.00;95.40
54202;DHT22;40108;53.152;5.844;2022-11-11T07:00:38;10.90;95.50
54202;DHT22;40108;53.152;5.844;2022-11-11T07:03:05;10.90;95.40
54202;DHT22;40108;53.152;5.844;2022-11-11T07:05:32;10.90;95.40
54202;DHT22;40108;53.152;5.844;2022-11-11T07:08:06;10.80;95.40
54202;DHT22;40108;53.152;5.844;2022-11-11T07:10:33;10.90;95.40
54202;DHT22;40108;53.152;5.844;2022-11-11T07:12:59;10.90;95.50
54202;DHT22;40108;53.152;5.844;2022-11-11T07:15:25;10.90;95.50
54202;DHT22;40108;53.152;5.844;2022-11-11T07:17:50;10.80;95.50
54202;DHT22;40108;53.152;5.844;2022-11-11T07:20:16;10.90;95.50
54202;DHT22;40108;53.152;5.844;2022-11-11T07:22:42;10.90;95.50
54202;DHT22;40108;53.152;5.844;2022-11-11T07:25:08;10.90;95.50
54202;DHT22;40108;53.152;5.844;2022-11-11T07:27:38;10.90;95.50
54202;DHT22;40108;53.152;5.844;2022-11-11T07:30:04;10.90;95.50
54202;DHT22;40108;53.152;5.844;2022-11-11T07:32:31;10.90;95.40
54202;DHT22;40108;53.152;5.844;2022-11-11T07:34:57;10.90;95.40
54202;DHT22;40108;53.152;5.844;2022-11-11T07:37:22;10.90;95.40
54202;DHT22;40108;53.152;5.844;2022-11-11T07:39:48;11.00;95.40
54202;DHT22;40108;53.152;5.844;2022-11-11T07:42:14;10.90;95.30
54202;DHT22;40108;53.152;5.844;2022-11-11T07:44:40;10.90;95.30
54202;DHT22;40108;53.152;5.844;2022-11-11T07:47:06;11.00;95.30
54202;DHT22;40108;53.152;5.844;2022-11-11T07:49:32;11.00;95.30
54202;DHT22;40108;53.152;5.844;2022-11-11T07:51:58;11.00;95.30
54202;DHT22;40108;53.152;5.844;2022-11-11T07:54:23;11.00;95.30
54202;DHT22;40108;53.152;5.844;2022-11-11T07:56:49;11.00;95.30
54202;DHT22;40108;53.152;5.844;2022-11-11T07:59:15;11.00;95.30
54202;DHT22;40108;53.152;5.844;2022-11-11T08:01:40;11.00;95.40
54202;DHT22;40108;53.152;5.844;2022-11-11T08:04:06;11.00;95.30
54202;DHT22;40108;53.152;5.844;2022-11-11T08:06:32;11.00;95.30
54202;DHT22;40108;53.152;5.844;2022-11-11T08:08:58;11.00;95.30
54202;DHT22;40108;53.152;5.844;2022-11-11T08:11:23;11.10;95.20
54202;DHT22;40108;53.152;5.844;2022-11-11T08:14:07;11.00;95.10
54202;DHT22;40108;53.152;5.844;2022-11-11T08:16:33;11.00;95.10
54202;DHT22;40108;53.152;5.844;2022-11-11T08:18:59;11.00;95.20
54202;DHT22;40108;53.152;5.844;2022-11-11T08:21:25;11.00;95.20
54202;DHT22;40108;53.152;5.844;2022-11-11T08:23:51;11.00;95.10
54202;DHT22;40108;53.152;5.844;2022-11-11T08:26:17;11.00;95.10
54202;DHT22;40108;53.152;5.844;2022-11-11T08:28:43;10.90;95.10
54202;DHT22;40108;53.152;5.844;2022-11-11T08:31:09;10.90;95.10
54202;DHT22;40108;53.152;5.844;2022-11-11T08:33:35;10.90;95.10
54202;DHT22;40108;53.152;5.844;2022-11-11T08:36:02;10.90;95.10
54202;DHT22;40108;53.152;5.844;2022-11-11T08:38:31;11.00;95.10
54202;DHT22;40108;53.152;5.844;2022-11-11T08:41:01;10.90;95.10
54202;DHT22;40108;53.152;5.844;2022-11-11T08:43:27;10.90;95.10
54202;DHT22;40108;53.152;5.844;2022-11-11T08:45:57;10.90;95.10
54202;DHT22;40108;53.152;5.844;2022-11-11T08:48:23;10.90;95.10
54202;DHT22;40108;53.152;5.844;2022-11-11T08:50:50;10.90;95.10
54202;DHT22;40108;53.152;5.844;2022-11-11T08:53:16;10.90;95.00
54202;DHT22;40108;53.152;5.844;2022-11-11T08:55:42;11.00;95.00
54202;DHT22;40108;53.152;5.844;2022-11-11T08:58:09;11.00;95.00
54202;DHT22;40108;53.152;5.844;2022-11-11T09:00:35;10.90;95.00
54202;DHT22;40108;53.152;5.844;2022-11-11T09:03:06;10.90;95.00
54202;DHT22;40108;53.152;5.844;2022-11-11T09:05:33;10.90;95.00
54202;DHT22;40108;53.152;5.844;2022-11-11T09:08:03;10.90;95.00
54202;DHT22;40108;53.152;5.844;2022-11-11T09:10:33;10.90;95.10
54202;DHT22;40108;53.152;5.844;2022-11-11T09:13:00;10.90;95.20
54202;DHT22;40108;53.152;5.844;2022-11-11T09:15:26;10.90;95.10
54202;DHT22;40108;53.152;5.844;2022-11-11T09:17:52;10.90;95.20
54202;DHT22;40108;53.152;5.844;2022-11-11T09:20:18;10.90;95.20
54202;DHT22;40108;53.152;5.844;2022-11-11T09:22:46;10.90;95.20
54202;DHT22;40108;53.152;5.844;2022-11-11T09:25:12;10.90;95.20
54202;DHT22;40108;53.152;5.844;2022-11-11T09:27:38;10.90;95.20
54202;DHT22;40108;53.152;5.844;2022-11-11T09:30:05;11.00;95.20
54202;DHT22;40108;53.152;5.844;2022-11-11T09:32:31;10.90;95.20
54202;DHT22;40108;53.152;5.844;2022-11-11T09:34:57;11.00;95.20
54202;DHT22;40108;53.152;5.844;2022-11-11T09:37:23;10.90;95.20
54202;DHT22;40108;53.152;5.844;2022-11-11T09:39:49;11.00;95.20
54202;DHT22;40108;53.152;5.844;2022-11-11T09:47:34;11.00;95.10
54202;DHT22;40108;53.152;5.844;2022-11-11T09:50:08;11.00;95.10
54202;DHT22;40108;53.152;5.844;2022-11-11T09:55:54;11.00;94.90
54202;DHT22;40108;53.152;5.844;2022-11-11T09:58:48;11.00;94.90
54202;DHT22;40108;53.152;5.844;2022-11-11T10:01:26;11.00;95.00
54202;DHT22;40108;53.152;5.844;2022-11-11T10:06:33;11.00;94.90
54202;DHT22;40108;53.152;5.844;2022-11-11T10:09:15;11.00;94.90
54202;DHT22;40108;53.152;5.844;2022-11-11T10:14:42;11.00;94.90
54202;DHT22;40108;53.152;5.844;2022-11-11T10:20:33;11.00;94.80
54202;DHT22;40108;53.152;5.844;2022-11-11T10:25:33;11.00;94.70
54202;DHT22;40108;53.152;5.844;2022-11-11T10:28:00;11.00;94.80
54202;DHT22;40108;53.152;5.844;2022-11-11T10:30:29;11.00;94.80
54202;DHT22;40108;53.152;5.844;2022-11-11T10:33:17;11.00;94.60
54202;DHT22;40108;53.152;5.844;2022-11-11T10:35:44;11.00;94.70
54202;DHT22;40108;53.152;5.844;2022-11-11T10:38:40;11.10;94.70
54202;DHT22;40108;53.152;5.844;2022-11-11T10:41:14;11.00;94.60
54202;DHT22;40108;53.152;5.844;2022-11-11T10:43:44;11.00;94.70
54202;DHT22;40108;53.152;5.844;2022-11-11T10:46:28;11.00;94.70
54202;DHT22;40108;53.152;5.844;2022-11-11T10:51:43;11.00;94.70
54202;DHT22;40108;53.152;5.844;2022-11-11T10:54:16;11.10;94.70
54202;DHT22;40108;53.152;5.844;2022-11-11T10:57:17;11.00;94.60
54202;DHT22;40108;53.152;5.844;2022-11-11T11:02:59;11.10;94.60
54202;DHT22;40108;53.152;5.844;2022-11-11T11:05:48;11.10;94.60
54202;DHT22;40108;53.152;5.844;2022-11-11T11:08:40;11.10;94.60
54202;DHT22;40108;53.152;5.844;2022-11-11T11:11:15;11.10;94.60
54202;DHT22;40108;53.152;5.844;2022-11-11T11:13:50;11.10;94.50
54202;DHT22;40108;53.152;5.844;2022-11-11T11:16:27;11.10;94.50
54202;DHT22;40108;53.152;5.844;2022-11-11T11:19:15;11.00;94.40
54202;DHT22;40108;53.152;5.844;2022-11-11T11:21:55;11.00;94.50
54202;DHT22;40108;53.152;5.844;2022-11-11T11:24:26;11.10;94.60
54202;DHT22;40108;53.152;5.844;2022-11-11T11:27:00;11.00;94.60
54202;DHT22;40108;53.152;5.844;2022-11-11T11:29:37;11.00;94.60
54202;DHT22;40108;53.152;5.844;2022-11-11T11:32:26;11.00;94.60
54202;DHT22;40108;53.152;5.844;2022-11-11T11:34:54;11.00;94.50
54202;DHT22;40108;53.152;5.844;2022-11-11T11:37:24;11.00;94.60
54202;DHT22;40108;53.152;5.844;2022-11-11T11:40:03;11.00;94.50
54202;DHT22;40108;53.152;5.844;2022-11-11T11:42:37;11.00;94.60
54202;DHT22;40108;53.152;5.844;2022-11-11T11:45:32;11.00;94.60
54202;DHT22;40108;53.152;5.844;2022-11-11T11:51:07;11.00;94.60
54202;DHT22;40108;53.152;5.844;2022-11-11T11:53:51;11.00;94.50
54202;DHT22;40108;53.152;5.844;2022-11-11T11:56:49;11.00;94.50
54202;DHT22;40108;53.152;5.844;2022-11-11T11:59:20;11.00;94.60
54202;DHT22;40108;53.152;5.844;2022-11-11T12:04:46;10.90;94.60
54202;DHT22;40108;53.152;5.844;2022-11-11T12:15:40;11.10;94.70
54202;DHT22;40108;53.152;5.844;2022-11-11T12:21:13;11.00;94.60
54202;DHT22;40108;53.152;5.844;2022-11-11T12:23:51;11.10;94.60
54202;DHT22;40108;53.152;5.844;2022-11-11T12:26:35;11.10;94.60
54202;DHT22;40108;53.152;5.844;2022-11-11T12:47:55;11.20;94.40
54202;DHT22;40108;53.152;5.844;2022-11-11T12:50:45;11.20;94.30
54202;DHT22;40108;53.152;5.844;2022-11-11T12:56:23;11.20;94.30
54202;DHT22;40108;53.152;5.844;2022-11-11T13:01:42;11.20;94.20
54202;DHT22;40108;53.152;5.844;2022-11-11T13:04:34;11.20;94.20
54202;DHT22;40108;53.152;5.844;2022-11-11T13:15:41;11.20;94.10
54202;DHT22;40108;53.152;5.844;2022-11-11T13:18:14;11.20;94.00
54202;DHT22;40108;53.152;5.844;2022-11-11T13:23:27;11.20;94.10
54202;DHT22;40108;53.152;5.844;2022-11-11T13:25:57;11.20;94.10
54202;DHT22;40108;53.152;5.844;2022-11-11T13:28:31;11.20;94.10
54202;DHT22;40108;53.152;5.844;2022-11-11T13:31:19;11.20;94.20
54202;DHT22;40108;53.152;5.844;2022-11-11T13:33:52;11.20;94.20
54202;DHT22;40108;53.152;5.844;2022-11-11T13:36:22;11.20;94.20
54202;DHT22;40108;53.152;5.844;2022-11-11T13:41:53;11.20;94.10
54202;DHT22;40108;53.152;5.844;2022-11-11T13:47:18;11.20;94.20
54202;DHT22;40108;53.152;5.844;2022-11-11T13:49:52;11.20;94.20
54202;DHT22;40108;53.152;5.844;2022-11-11T13:52:21;11.20;94.20
54202;DHT22;40108;53.152;5.844;2022-11-11T13:55:06;11.20;94.30
54202;DHT22;40108;53.152;5.844;2022-11-11T13:57:33;11.20;94.30
54202;DHT22;40108;53.152;5.844;2022-11-11T14:00:27;11.20;94.30
54202;DHT22;40108;53.152;5.844;2022-11-11T14:05:46;11.10;94.30
54202;DHT22;40108;53.152;5.844;2022-11-11T14:13:52;11.10;94.40
54202;DHT22;40108;53.152;5.844;2022-11-11T14:21:53;11.10;94.40
54202;DHT22;40108;53.152;5.844;2022-11-11T14:25:08;11.10;94.30
54202;DHT22;40108;53.152;5.844;2022-11-11T14:27:33;11.10;94.30
54202;DHT22;40108;53.152;5.844;2022-11-11T14:29:59;11.10;94.40
54202;DHT22;40108;53.152;5.844;2022-11-11T14:35:14;11.10;94.40
54202;DHT22;40108;53.152;5.844;2022-11-11T14:40:36;11.10;94.50
54202;DHT22;40108;53.152;5.844;2022-11-11T14:43:35;11.10;94.60
54202;DHT22;40108;53.152;5.844;2022-11-11T14:46:07;11.10;94.60
54202;DHT22;40108;53.152;5.844;2022-11-11T14:48:53;11.10;94.60
54202;DHT22;40108;53.152;5.844;2022-11-11T14:51:47;11.10;94.60
54202;DHT22;40108;53.152;5.844;2022-11-11T14:54:31;11.10;94.60
54202;DHT22;40108;53.152;5.844;2022-11-11T14:57:04;11.10;94.70
54202;DHT22;40108;53.152;5.844;2022-11-11T14:59:31;11.10;94.70
54202;DHT22;40108;53.152;5.844;2022-11-11T15:01:58;11.10;94.70
54202;DHT22;40108;53.152;5.844;2022-11-11T15:04:26;11.10;94.70
54202;DHT22;40108;53.152;5.844;2022-11-11T15:07:00;11.10;94.70
54202;DHT22;40108;53.152;5.844;2022-11-11T15:12:28;11.10;94.70
54202;DHT22;40108;53.152;5.844;2022-11-11T15:15:13;11.00;94.70
54202;DHT22;40108;53.152;5.844;2022-11-11T15:20:34;11.00;94.80
54202;DHT22;40108;53.152;5.844;2022-11-11T15:24:11;11.00;94.90
54202;DHT22;40108;53.152;5.844;2022-11-11T15:26:39;11.10;94.90
54202;DHT22;40108;53.152;5.844;2022-11-11T15:29:32;11.00;95.00
54202;DHT22;40108;53.152;5.844;2022-11-11T15:37:30;10.90;95.20
54202;DHT22;40108;53.152;5.844;2022-11-11T15:39:56;10.90;95.20
54202;DHT22;40108;53.152;5.844;2022-11-11T15:42:34;11.00;95.30
54202;DHT22;40108;53.152;5.844;2022-11-11T15:45:24;10.90;95.30
54202;DHT22;40108;53.152;5.844;2022-11-11T15:47:52;10.90;95.30
54202;DHT22;40108;53.152;5.844;2022-11-11T15:52:55;10.90;95.40
54202;DHT22;40108;53.152;5.844;2022-11-11T15:55:24;10.90;95.40
54202;DHT22;40108;53.152;5.844;2022-11-11T15:57:50;10.90;95.50
54202;DHT22;40108;53.152;5.844;2022-11-11T16:00:30;10.80;95.50
54202;DHT22;40108;53.152;5.844;2022-11-11T16:02:57;10.80;95.50
54202;DHT22;40108;53.152;5.844;2022-11-11T16:05:25;10.80;95.50
54202;DHT22;40108;53.152;5.844;2022-11-11T16:07:54;10.80;95.60
54202;DHT22;40108;53.152;5.844;2022-11-11T16:10:31;10.80;95.60
54202;DHT22;40108;53.152;5.844;2022-11-11T16:13:25;10.80;95.60
54202;DHT22;40108;53.152;5.844;2022-11-11T16:16:26;10.80;95.60
54202;DHT22;40108;53.152;5.844;2022-11-11T16:18:58;10.80;95.70
54202;DHT22;40108;53.152;5.844;2022-11-11T16:21:31;10.80;95.60
54202;DHT22;40108;53.152;5.844;2022-11-11T16:23:59;10.80;95.60
54202;DHT22;40108;53.152;5.844;2022-11-11T16:26:27;10.80;95.60
54202;DHT22;40108;53.152;5.844;2022-11-11T16:28:57;10.80;95.50
54202;DHT22;40108;53.152;5.844;2022-11-11T16:31:35;10.80;95.50
54202;DHT22;40108;53.152;5.844;2022-11-11T16:37:04;10.80;95.50
54202;DHT22;40108;53.152;5.844;2022-11-11T16:39:30;10.80;95.50
54202;DHT22;40108;53.152;5.844;2022-11-11T16:41:58;10.80;95.40
54202;DHT22;40108;53.152;5.844;2022-11-11T16:45:04;10.80;95.40
54202;DHT22;40108;53.152;5.844;2022-11-11T16:50:23;10.80;95.40
54202;DHT22;40108;53.152;5.844;2022-11-11T16:53:00;10.80;95.30
54202;DHT22;40108;53.152;5.844;2022-11-11T16:55:37;10.90;95.30
54202;DHT22;40108;53.152;5.844;2022-11-11T16:58:14;10.80;95.20
54202;DHT22;40108;53.152;5.844;2022-11-11T17:00:41;10.80;95.10
54202;DHT22;40108;53.152;5.844;2022-11-11T17:03:19;10.90;95.10
54202;DHT22;40108;53.152;5.844;2022-11-11T17:05:56;10.90;95.10
54202;DHT22;40108;53.152;5.844;2022-11-11T17:08:39;10.90;95.10
54202;DHT22;40108;53.152;5.844;2022-11-11T17:11:08;10.90;95.00
54202;DHT22;40108;53.152;5.844;2022-11-11T17:13:34;10.90;94.90
54202;DHT22;40108;53.152;5.844;2022-11-11T17:16:05;10.90;94.90
54202;DHT22;40108;53.152;5.844;2022-11-11T17:18:37;10.90;94.90
54202;DHT22;40108;53.152;5.844;2022-11-11T17:21:04;11.00;94.80
54202;DHT22;40108;53.152;5.844;2022-11-11T17:23:30;10.90;94.80
54202;DHT22;40108;53.152;5.844;2022-11-11T17:25:59;10.90;94.70
54202;DHT22;40108;53.152;5.844;2022-11-11T17:28:36;11.00;94.70
54202;DHT22;40108;53.152;5.844;2022-11-11T17:31:06;11.00;94.70
54202;DHT22;40108;53.152;5.844;2022-11-11T17:33:32;11.10;94.60
54202;DHT22;40108;53.152;5.844;2022-11-11T17:35:58;11.00;94.50
54202;DHT22;40108;53.152;5.844;2022-11-11T17:38:25;11.10;94.50
54202;DHT22;40108;53.152;5.844;2022-11-11T17:40:51;11.10;94.50
54202;DHT22;40108;53.152;5.844;2022-11-11T17:43:17;11.10;94.40
54202;DHT22;40108;53.152;5.844;2022-11-11T17:45:43;11.10;94.40
54202;DHT22;40108;53.152;5.844;2022-11-11T17:48:09;11.10;94.40
54202;DHT22;40108;53.152;5.844;2022-11-11T17:50:36;11.10;94.40
54202;DHT22;40108;53.152;5.844;2022-11-11T17:53:04;11.00;94.40
54202;DHT22;40108;53.152;5.844;2022-11-11T17:55:33;11.00;94.40
54202;DHT22;40108;53.152;5.844;2022-11-11T17:58:00;10.90;94.40
54202;DHT22;40108;53.152;5.844;2022-11-11T18:00:26;10.90;94.50
54202;DHT22;40108;53.152;5.844;2022-11-11T18:02:52;10.90;94.50
54202;DHT22;40108;53.152;5.844;2022-11-11T18:05:18;10.90;94.50
54202;DHT22;40108;53.152;5.844;2022-11-11T18:07:44;10.90;94.60
54202;DHT22;40108;53.152;5.844;2022-11-11T18:10:11;10.80;94.60
54202;DHT22;40108;53.152;5.844;2022-11-11T18:12:36;10.90;94.70